Observations for FAIRFORD RAF, United Kingdom (EGVA)

EGVA 260456Z AUTO 20003KT 0200 R27/0350V0500 FG BKN000 13/13 A3006 RMK AO2 VIS 0200V8000 RAB25E34DZB34E35 SLP180 P0000 T01340134 $  
EGVA 260425Z AUTO 26003KT 9000 -RA BR CLR 13/13 A3007 RMK AO2 VIS 3600 RWY09 RAB25 SLP183 $
EGVA 260435Z AUTO 22003KT 8000 BR CLR 13/13 A3007 RMK AO2 RAB25E34DZB34E35 SLP183 $
EGVA 260436Z AUTO 22003KT 9000 BR FEW001 13/13 A3007 RMK AO2 RAB25E34DZB34E35 SLP183 $
EGVA 260406Z AUTO 26003KT 3000 BR CLR 13/13 A3007 RMK AO2 VIS 3000V9999 VIS 1200 RWY09 SLP183 $
EGVA 260407Z AUTO 26003KT 1200 R27/0550VP1500 BR CLR 13/13 A3007 RMK AO2 VIS 1200V9999 SLP183 $
EGVA 260412Z AUTO 26004KT 0400 R27/0400V0900 FG CLR 13/13 A3007 RMK AO2 VIS 0400V8000 SLP183 $
EGVA 260417Z AUTO 26003KT 1800 R27/1500 FG CLR 13/13 A3007 RMK AO2 VIS 0400V1800 VIS 0600 RWY09 SLP183 $
EGVA 260418Z AUTO 26004KT 3600 BR CLR 13/13 A3007 RMK AO2 VIS 0400V3600 VIS 0600 RWY09 SLP183 $
EGVA 260423Z AUTO 26004KT 9000 BR CLR 13/13 A3007 RMK AO2 VIS 2000 RWY09 SLP183$
EGVA 260446Z AUTO 20004KT 9000 BR BKN000 13/13 A3007 RMK AO2 RAB25E34DZB34E35 SLP183 $
EGVA 260451Z AUTO 20003KT 1200 R27/0350VP1500 BR BKN000 13/13 A3007 RMK AO2 VIS1200V9999 RAB25E34DZB34E35 SLP183 $
EGVA 260356Z AUTO 00000KT 9999 CLR 13/13 A3007 RMK AO2 VIS 1200 RWY09 SLP183 T01320132 $
EGVA 260256Z AUTO 00000KT 9999 SCT001 15/15 A3007 RMK AO2 SLP182 T01500150 57005 $  
EGVA 260248Z AUTO 00000KT 9999 FEW001 15/15 A3007 RMK AO2 VIS 1200 RWY09 SLP182$
EGVA 260156Z AUTO 00000KT 9999 CLR 15/14 A3007 RMK AO2 SLP182 T01450142 $   
EGVA 260056Z AUTO 00000KT 9999 CLR 16/15 A3008 RMK AO2 VIS 4000 RWY09 SLP186 T01580148 $
EGVA 252356Z AUTO 00000KT 9999 CLR 17/16 A3009 RMK AO2 SLP190 60000 T01660156 10279 20166 403070149 50002 $ 
EGVA 252256Z AUTO 00000KT 9999 CLR 17/16 A3009 RMK AO2 SLP190 T01700155 $   
EGVA 252156Z AUTO 24006KT 9999 CLR 18/16 A3009 RMK AO2 SLP190 T01760158 $   
EGVA 252056Z AUTO 22004KT 9999 CLR 19/16 A3008 RMK AO2 SLP187 60000 T01900157 52014 $   
EGVA 251956Z AUTO 27005KT 9999 SCT120 20/16 A3007 RMK AO2 RAB43E53 SLP184 P0000 T02030157 $ 
EGVA 251943Z AUTO 26005KT 9999 -RA FEW120 20/16 A3007 RMK AO2 RAB43 SLP184 $
EGVA 251953Z AUTO 27005KT 9999 SCT120 20/16 A3007 RMK AO2 RAB43E53 SLP184 $
EGVA 251856Z AUTO 26007KT 9999 CLR 23/18 A3006 RMK AO2 SLP180 T02290182 $   
EGVA 251756Z AUTO 23005KT 9999 CLR 28/15 A3004 RMK AO2 SLP173 T02800149 10307 20275 53006 $ 
EGVA 251656Z AUTO 19012KT 9999 CLR 30/11 A3003 RMK AO2 SLP169 T02970112 $   
EGVA 251556Z AUTO 20011KT 9999 CLR 30/12 A3002 RMK AO2 SLP165 T03040118 $   
EGVA 251456Z AUTO 22009KT 9999 CLR 31/15 A3002 RMK AO2 SLP165 T03050145 57007 $ 
EGVA 251356Z AUTO 18007KT 9999 CLR 30/14 A3003 RMK AO2 SLP169 T03030144 $   
EGVA 251256Z AUTO 26006KT 9999 CLR 29/16 A3004 RMK AO2 SLP172 T02890161 $   
EGVA 251156Z AUTO 23008KT 9999 CLR 28/15 A3004 RMK AO2 SLP173 60000 T02750152 10278 20161 57003 $   
EGVA 251056Z AUTO 00000KT 9999 CLR 26/16 A3005 RMK AO2 RAB10E20 SLP176 P0000 T02610155 $
EGVA 251010Z AUTO 15003KT 9999 -RA FEW150 25/15 A3005 RMK AO2 RAB10 SLP176 $
EGVA 251020Z AUTO 12005KT 9999 CLR 25/15 A3005 RMK AO2 RAB10E20 SLP176 $
EGVA 250956Z AUTO 00000KT 9999 SCT150 24/16 A3005 RMK AO2 RAB11E21DZB21E22 SLP176 P0000 T02440156 $ 
EGVA 250911Z AUTO 00000KT 9999 -RA FEW100 FEW130 SCT150 21/15 A3005 RMK AO2 RAB11 SLP177 $
EGVA 250922Z AUTO 00000KT 9999 SCT150 22/15 A3005 RMK AO2 RAB11E21DZB21E22 SLP176 $
EGVA 250856Z AUTO 00000KT 9999 FEW100 BKN120 21/15 A3005 RMK AO2 SLP176 60000 T02070148 52015 $ 
EGVA 250756Z AUTO 04005KT 9999 SCT100 BKN130 19/14 A3004 RMK AO2 RAB32E43DZB43E46 SLP173 P0000 T01880136 $  
EGVA 250732Z AUTO 00000KT 9999 -RA BKN130 18/14 A3004 RMK AO2 RAB32 SLP173 $
EGVA 250746Z AUTO 04003KT 9999 BKN130 19/14 A3004 RMK AO2 RAB32E43DZB43E46 SLP173 $
EGVA 250656Z AUTO 09006KT 9999 OVC140 18/13 A3001 RMK AO2 SLP163 T01750132 $
EGVA 250556Z AUTO 07006KT 9999 FEW100 SCT140 SCT190 16/12 A3001 RMK AO2 SLP163 60000 T01600122 10174 20149 58001 $  
EGVA 250456Z AUTO 06004KT 9999 CLR 16/12 A3001 RMK AO2 DZB02E06RAB06E25DZB25E38RAB38E48DZB48E55 SLP162 P0000 T01550117 $